createdAt,value
2022-10-11T00:00:02.068Z,99712.88
2022-10-11T00:02:28.481Z,99716.28
2022-10-11T00:04:54.957Z,99713.38
2022-10-11T00:07:21.636Z,99720.22
2022-10-11T00:09:48.062Z,99729.41
2022-10-11T00:12:14.451Z,99730.75
2022-10-11T00:14:40.901Z,99751.50
2022-10-11T00:17:10.198Z,99747.22
2022-10-11T00:19:36.647Z,99748.94
2022-10-11T00:22:03.010Z,99746.22
2022-10-11T00:24:29.433Z,99749.69
2022-10-11T00:26:55.807Z,99750.25
2022-10-11T00:29:22.488Z,99754.16
2022-10-11T00:31:48.860Z,99757.59
2022-10-11T00:34:18.036Z,99759.38
2022-10-11T00:36:45.218Z,99766.53
2022-10-11T00:39:14.302Z,99765.59
2022-10-11T00:41:41.186Z,99772.78
2022-10-11T00:44:17.182Z,99770.88
2022-10-11T00:46:45.944Z,99780.63
2022-10-11T00:49:15.279Z,99774.41
2022-10-11T00:51:41.620Z,99777.75
2022-10-11T00:54:11.279Z,99780.31
2022-10-11T00:56:38.842Z,99786.38
2022-10-11T00:59:09.676Z,99787.78
2022-10-11T01:01:36.476Z,99791.22
2022-10-11T01:04:02.990Z,99791.22
2022-10-11T01:06:29.633Z,99791.00
2022-10-11T01:08:56.274Z,99799.81
2022-10-11T01:11:23.996Z,99798.66
2022-10-11T01:13:56.370Z,99808.84
2022-10-11T01:16:34.273Z,99809.44
2022-10-11T01:19:00.652Z,99805.72
2022-10-11T01:21:35.335Z,99808.16
2022-10-11T01:24:08.736Z,99811.50
2022-10-11T01:26:47.550Z,99812.97
2022-10-11T01:29:32.678Z,99818.34
2022-10-11T01:32:05.458Z,99812.91
2022-10-11T01:34:41.171Z,99817.06
2022-10-11T01:37:15.083Z,99825.06
2022-10-11T01:39:54.678Z,99818.91
2022-10-11T01:42:21.667Z,99824.31
2022-10-11T01:44:49.891Z,99817.16
2022-10-11T01:47:23.201Z,99827.09
2022-10-11T01:49:53.847Z,99834.31
2022-10-11T01:52:21.457Z,99831.69
2022-10-11T01:55:09.745Z,99830.59
2022-10-11T01:57:39.644Z,99836.84
2022-10-11T02:00:26.345Z,99837.00
2022-10-11T02:02:52.793Z,99837.94
2022-10-11T02:05:24.612Z,99838.00
2022-10-11T02:08:07.870Z,99839.22
2022-10-11T02:10:37.861Z,99841.75
2022-10-11T02:13:09.339Z,99842.38
2022-10-11T02:15:38.461Z,99837.13
2022-10-11T02:18:08.397Z,99836.25
2022-10-11T02:20:37.594Z,99846.28
2022-10-11T02:23:08.229Z,99837.28
2022-10-11T02:25:35.971Z,99852.41
2022-10-11T02:28:04.445Z,99859.56
2022-10-11T02:30:32.045Z,99857.88
2022-10-11T02:33:00.266Z,99869.50
2022-10-11T02:35:29.678Z,99866.81
2022-10-11T02:38:05.785Z,99860.41
2022-10-11T02:40:33.338Z,99860.34
2022-10-11T02:43:03.569Z,99864.28
2022-10-11T02:45:32.866Z,99863.72
2022-10-11T02:47:59.787Z,99868.16
2022-10-11T02:50:26.667Z,99872.66
2022-10-11T02:52:53.205Z,99876.63
2022-10-11T02:55:19.698Z,99879.31
2022-10-11T02:57:46.382Z,99884.34
2022-10-11T03:00:14.439Z,99891.38
2022-10-11T03:02:41.029Z,99893.59
2022-10-11T03:05:07.680Z,99897.13
2022-10-11T03:07:34.102Z,99900.91
2022-10-11T03:10:00.575Z,99902.84
2022-10-11T03:12:26.969Z,99912.00
2022-10-11T03:14:53.417Z,99915.44
2022-10-11T03:17:35.703Z,99926.50
2022-10-11T03:20:02.912Z,99927.41
2022-10-11T03:22:29.296Z,99920.38
2022-10-11T03:24:58.548Z,99929.72
2022-10-11T03:27:29.128Z,99929.03
2022-10-11T03:29:56.164Z,99938.25
2022-10-11T03:32:22.603Z,99939.28
2022-10-11T03:34:49.018Z,99942.94
2022-10-11T03:37:15.550Z,99949.13
2022-10-11T03:39:42.031Z,99951.44
2022-10-11T03:42:08.470Z,99957.06
2022-10-11T03:44:34.869Z,99956.38
2022-10-11T03:47:01.572Z,99959.53
2022-10-11T03:49:27.950Z,99961.31
2022-10-11T03:51:54.495Z,99964.38
2022-10-11T03:54:21.061Z,99971.56
2022-10-11T03:56:47.496Z,99968.88
2022-10-11T03:59:13.918Z,99984.97
2022-10-11T04:01:40.672Z,99979.69
2022-10-11T04:04:07.177Z,99977.00
2022-10-11T04:06:33.699Z,99987.09
2022-10-11T04:09:00.144Z,99979.03
2022-10-11T04:11:27.030Z,99983.75
2022-10-11T04:13:53.550Z,99986.81
2022-10-11T04:16:20.009Z,99999.47
2022-10-11T04:18:46.438Z,99993.59
2022-10-11T04:21:13.115Z,100001.72
2022-10-11T04:23:39.527Z,100006.34
2022-10-11T04:26:07.432Z,100011.31
2022-10-11T04:28:35.453Z,100010.94
2022-10-11T04:31:04.252Z,100014.66
2022-10-11T04:33:31.041Z,100015.44
2022-10-11T04:35:57.536Z,100015.59
2022-10-11T04:38:25.461Z,100020.47
2022-10-11T04:40:51.895Z,100019.72
2022-10-11T04:43:19.057Z,100030.75
2022-10-11T04:45:45.490Z,100025.91
2022-10-11T04:48:11.905Z,100033.44
2022-10-11T04:50:38.417Z,100034.66
2022-10-11T04:53:04.920Z,100043.75
2022-10-11T04:55:31.295Z,100053.09
2022-10-11T04:57:57.753Z,100048.88
2022-10-11T05:00:24.155Z,100050.22
2022-10-11T05:02:52.228Z,100047.72
2022-10-11T05:05:20.466Z,100055.16
2022-10-11T05:07:46.896Z,100055.47
2022-10-11T05:10:13.312Z,100061.00
2022-10-11T05:12:39.811Z,100065.69
2022-10-11T05:15:06.633Z,100062.38
2022-10-11T05:17:33.155Z,100069.72
2022-10-11T05:19:59.593Z,100078.81
2022-10-11T05:22:26.064Z,100079.03
2022-10-11T05:24:52.504Z,100081.00
2022-10-11T05:27:18.953Z,100082.97
2022-10-11T05:29:45.837Z,100088.41
2022-10-11T05:32:12.270Z,100087.78
2022-10-11T05:34:38.659Z,100096.03
2022-10-11T05:37:05.108Z,100099.78
2022-10-11T05:39:32.343Z,100103.50
2022-10-11T05:41:58.810Z,100102.69
2022-10-11T05:44:25.296Z,100109.94
2022-10-11T05:46:51.749Z,100113.66
2022-10-11T05:49:18.213Z,100115.50
2022-10-11T05:51:44.670Z,100116.50
2022-10-11T05:54:11.110Z,100127.22
2022-10-11T05:56:37.547Z,100136.19
2022-10-11T05:59:04.459Z,100133.63
2022-10-11T06:01:30.995Z,100135.44
2022-10-11T06:03:57.491Z,100145.22
2022-10-11T06:06:24.073Z,100152.41
2022-10-11T06:08:50.650Z,100158.56
2022-10-11T06:11:23.489Z,100162.16
2022-10-11T06:13:50.114Z,100159.41
2022-10-11T06:16:16.544Z,100163.84
2022-10-11T06:18:42.964Z,100165.56
2022-10-11T06:21:09.469Z,100170.00
2022-10-11T06:23:35.958Z,100172.59
2022-10-11T06:26:08.094Z,100171.69
2022-10-11T06:28:35.689Z,100182.31
2022-10-11T06:31:03.854Z,100180.47
2022-10-11T06:33:30.258Z,100187.50
2022-10-11T06:36:00.586Z,100182.94
2022-10-11T06:38:27.184Z,100183.75
2022-10-11T06:40:53.921Z,100188.06
2022-10-11T06:43:20.789Z,100186.94
2022-10-11T06:45:47.388Z,100185.03
2022-10-11T06:48:13.847Z,100188.28
2022-10-11T06:50:59.150Z,100190.56
2022-10-11T06:53:26.809Z,100203.56
2022-10-11T06:55:53.306Z,100193.34
2022-10-11T06:58:19.735Z,100199.19
2022-10-11T07:00:46.249Z,100204.97
2022-10-11T07:03:12.722Z,100207.44
2022-10-11T07:05:39.129Z,100208.03
2022-10-11T07:08:05.601Z,100205.09
2022-10-11T07:10:31.961Z,100206.78
2022-10-11T07:12:58.982Z,100211.06
2022-10-11T07:15:25.424Z,100222.41
2022-10-11T07:17:51.778Z,100220.44
2022-10-11T07:20:18.255Z,100217.78
2022-10-11T07:22:44.629Z,100217.66
2022-10-11T07:25:11.499Z,100223.78
2022-10-11T07:27:38.067Z,100225.34
2022-10-11T07:30:04.751Z,100227.00
2022-10-11T07:32:31.140Z,100232.97
2022-10-11T07:34:57.691Z,100237.38
2022-10-11T07:37:24.086Z,100234.56
2022-10-11T07:39:50.537Z,100236.16
2022-10-11T07:42:16.980Z,100240.38
2022-10-11T07:44:43.425Z,100242.97
2022-10-11T07:47:11.385Z,100241.84
2022-10-11T07:49:38.116Z,100252.38
2022-10-11T07:52:04.708Z,100252.19
2022-10-11T07:54:31.112Z,100255.66
2022-10-11T07:56:57.466Z,100247.41
2022-10-11T07:59:23.957Z,100251.81
2022-10-11T08:01:50.510Z,100244.47
2022-10-11T08:04:16.997Z,100251.53
2022-10-11T08:06:43.501Z,100248.72
2022-10-11T08:09:29.411Z,100242.13
2022-10-11T08:11:56.091Z,100246.38
2022-10-11T08:14:22.562Z,100247.88
2022-10-11T08:16:49.064Z,100248.53
2022-10-11T08:19:16.299Z,100251.94
2022-10-11T08:21:42.710Z,100257.09
2022-10-11T08:24:09.163Z,100252.50
2022-10-11T08:26:35.634Z,100247.72
2022-10-11T08:29:05.399Z,100251.13
2022-10-11T08:31:32.575Z,100255.69
2022-10-11T08:33:59.065Z,100253.50
2022-10-11T08:36:25.562Z,100251.25
2022-10-11T08:38:52.132Z,100259.84
2022-10-11T08:41:27.860Z,100253.50
2022-10-11T08:43:57.956Z,100257.84
2022-10-11T08:46:27.648Z,100261.66
2022-10-11T08:48:54.408Z,100259.72
2022-10-11T08:51:24.542Z,100257.47
2022-10-11T08:53:50.991Z,100261.19
2022-10-11T08:56:17.539Z,100256.72
2022-10-11T08:59:04.236Z,100264.34
2022-10-11T09:01:31.203Z,100258.94
2022-10-11T09:04:00.243Z,100263.34
2022-10-11T09:06:29.685Z,100267.94
2022-10-11T09:08:56.636Z,100269.50
2022-10-11T09:11:42.551Z,100274.09
2022-10-11T09:14:25.718Z,100275.34
2022-10-11T09:17:12.079Z,100266.09
2022-10-11T09:19:38.524Z,100267.19
2022-10-11T09:22:04.873Z,100263.84
2022-10-11T09:24:34.352Z,100267.31
2022-10-11T09:27:00.928Z,100266.38
2022-10-11T09:29:46.150Z,100267.78
2022-10-11T09:32:15.029Z,100263.44
2022-10-11T09:34:41.848Z,100267.22
2022-10-11T09:37:14.318Z,100265.44
2022-10-11T09:39:45.646Z,100262.72
2022-10-11T09:42:12.143Z,100269.56
2022-10-11T09:44:47.049Z,100263.34
2022-10-11T09:47:20.563Z,100266.25
2022-10-11T09:49:52.813Z,100273.75
2022-10-11T09:52:20.482Z,100265.47
2022-10-11T09:54:48.697Z,100269.31
2022-10-11T09:57:27.513Z,100260.69
2022-10-11T10:00:03.584Z,100266.34
2022-10-11T10:02:30.435Z,100269.59
2022-10-11T10:04:58.621Z,100270.25
2022-10-11T10:07:25.536Z,100266.88
2022-10-11T10:09:52.966Z,100268.47
2022-10-11T10:12:37.416Z,100267.25
2022-10-11T10:15:06.945Z,100274.78
2022-10-11T10:17:33.975Z,100265.28
2022-10-11T10:20:00.732Z,100271.81
2022-10-11T10:22:32.182Z,100275.97
2022-10-11T10:25:01.562Z,100274.78
2022-10-11T10:27:29.887Z,100284.84
2022-10-11T10:32:43.849Z,100280.78
2022-10-11T10:35:24.406Z,100278.63
2022-10-11T10:38:10.349Z,100278.25
2022-10-11T10:40:45.299Z,100277.53
2022-10-11T10:43:16.318Z,100280.38
2022-10-11T10:45:55.602Z,100276.00
2022-10-11T10:48:53.792Z,100277.31
2022-10-11T10:51:25.337Z,100282.19
2022-10-11T10:54:01.580Z,100274.09
2022-10-11T10:56:32.601Z,100274.75
2022-10-11T10:58:59.100Z,100287.25
2022-10-11T11:01:33.037Z,100280.47
2022-10-11T11:04:02.505Z,100283.81
2022-10-11T11:06:35.634Z,100279.78
2022-10-11T11:09:03.039Z,100276.59
2022-10-11T11:11:36.035Z,100283.56
2022-10-11T11:14:21.829Z,100281.97
2022-10-11T11:16:58.650Z,100275.41
2022-10-11T11:19:28.182Z,100281.00
2022-10-11T11:22:00.025Z,100280.75
2022-10-11T11:24:44.891Z,100277.72
2022-10-11T11:27:11.444Z,100282.97
2022-10-11T11:29:41.369Z,100274.63
2022-10-11T11:32:11.792Z,100278.06
2022-10-11T11:34:41.436Z,100277.66
2022-10-11T11:37:28.859Z,100282.91
2022-10-11T11:39:59.565Z,100278.13
2022-10-11T11:42:29.059Z,100273.25
2022-10-11T11:44:56.166Z,100276.00
2022-10-11T11:47:23.569Z,100276.69
2022-10-11T11:49:55.270Z,100271.84
2022-10-11T11:52:26.624Z,100264.72
2022-10-11T11:55:05.991Z,100264.25
2022-10-11T11:57:32.449Z,100263.09
2022-10-11T12:00:04.039Z,100263.97
2022-10-11T12:02:48.871Z,100258.50
2022-10-11T12:05:18.625Z,100264.38
2022-10-11T12:08:06.007Z,100252.63
2022-10-11T12:10:50.886Z,100247.72
2022-10-11T12:13:21.144Z,100246.00
2022-10-11T12:16:01.648Z,100242.91
2022-10-11T12:18:29.276Z,100243.72
2022-10-11T12:21:17.201Z,100251.34
2022-10-11T12:23:49.962Z,100242.81
2022-10-11T12:26:28.622Z,100240.59
2022-10-11T12:29:14.068Z,100245.50
2022-10-11T12:31:46.125Z,100247.03
2022-10-11T12:34:17.681Z,100244.03
2022-10-11T12:36:45.237Z,100243.84
2022-10-11T12:39:20.594Z,100244.72
2022-10-11T12:41:47.156Z,100241.06
2022-10-11T12:44:19.840Z,100236.41
2022-10-11T12:46:55.281Z,100242.50
2022-10-11T12:49:24.657Z,100238.03
2022-10-11T12:51:59.795Z,100236.41
2022-10-11T12:54:36.979Z,100238.47
2022-10-11T12:57:12.345Z,100233.41
2022-10-11T12:59:44.374Z,100240.44
2022-10-11T13:02:37.149Z,100242.91
2022-10-11T13:05:08.121Z,100236.72
2022-10-11T13:07:35.313Z,100241.28
2022-10-11T13:10:05.428Z,100239.69
2022-10-11T13:12:36.579Z,100232.81
2022-10-11T13:15:08.633Z,100237.28
2022-10-11T13:17:38.669Z,100238.78
2022-10-11T13:20:17.467Z,100230.19
2022-10-11T13:22:47.282Z,100238.06
2022-10-11T13:25:22.411Z,100235.59
2022-10-11T13:27:50.078Z,100242.03
2022-10-11T13:30:18.636Z,100242.31
2022-10-11T13:32:45.393Z,100232.19
2022-10-11T13:35:19.833Z,100240.78
2022-10-11T13:37:49.629Z,100244.09
2022-10-11T13:40:17.621Z,100239.53
2022-10-11T13:42:44.508Z,100239.53
2022-10-11T13:45:15.675Z,100245.03
2022-10-11T13:47:42.723Z,100242.81
2022-10-11T13:50:10.837Z,100250.03
2022-10-11T13:52:47.522Z,100243.19
2022-10-11T13:55:24.921Z,100235.97
2022-10-11T13:57:53.986Z,100235.34
2022-10-11T14:00:40.623Z,100230.34
2022-10-11T14:03:13.077Z,100228.03
2022-10-11T14:05:41.511Z,100225.22
2022-10-11T14:08:20.663Z,100232.81
2022-10-11T14:10:47.746Z,100233.91
2022-10-11T14:13:33.577Z,100229.94
2022-10-11T14:16:00.483Z,100230.56
2022-10-11T14:18:36.739Z,100231.91
2022-10-11T14:21:21.776Z,100227.75
2022-10-11T14:23:51.340Z,100229.53
2022-10-11T14:26:19.027Z,100230.03
2022-10-11T14:28:46.001Z,100231.78
2022-10-11T14:31:12.426Z,100230.47
2022-10-11T14:33:39.090Z,100229.84
2022-10-11T14:36:06.060Z,100231.38
2022-10-11T14:38:32.624Z,100229.63
2022-10-11T14:40:59.012Z,100232.00
2022-10-11T14:43:25.416Z,100228.41
2022-10-11T14:45:51.835Z,100229.28
2022-10-11T14:48:36.669Z,100233.53
2022-10-11T14:51:05.818Z,100233.41
2022-10-11T14:53:32.209Z,100222.56
2022-10-11T14:55:58.584Z,100231.28
2022-10-11T14:58:24.953Z,100230.00
2022-10-11T15:00:51.296Z,100226.63
2022-10-11T15:03:17.680Z,100227.22
2022-10-11T15:05:44.062Z,100227.78
2022-10-11T15:08:11.555Z,100232.81
2022-10-11T15:10:40.155Z,100229.66
2022-10-11T15:13:07.212Z,100226.59
2022-10-11T15:15:37.949Z,100224.47
2022-10-11T15:18:05.392Z,100225.91
2022-10-11T15:20:39.608Z,100221.97
2022-10-11T15:23:07.751Z,100229.56
2022-10-11T15:25:34.691Z,100228.28
2022-10-11T15:28:01.119Z,100225.06
2022-10-11T15:30:34.830Z,100226.19
2022-10-11T15:33:04.317Z,100225.44
2022-10-11T15:35:30.804Z,100220.19
2022-10-11T15:37:58.682Z,100227.59
2022-10-11T15:40:27.300Z,100224.16
2022-10-11T15:42:54.351Z,100231.66
2022-10-11T15:45:21.594Z,100232.88
2022-10-11T15:47:48.557Z,100226.97
2022-10-11T15:50:33.674Z,100235.38
2022-10-11T15:53:07.769Z,100236.69
2022-10-11T15:55:35.747Z,100246.06
2022-10-11T15:58:02.209Z,100237.47
2022-10-11T16:00:28.619Z,100240.63
2022-10-11T16:02:55.293Z,100244.53
2022-10-11T16:05:22.389Z,100238.81
2022-10-11T16:07:48.830Z,100240.97
2022-10-11T16:10:15.363Z,100245.03
2022-10-11T16:12:41.797Z,100239.25
2022-10-11T16:15:08.609Z,100248.56
2022-10-11T16:17:35.181Z,100247.19
2022-10-11T16:20:01.847Z,100248.50
2022-10-11T16:22:29.280Z,100245.28
2022-10-11T16:24:55.739Z,100248.34
2022-10-11T16:27:22.166Z,100246.91
2022-10-11T16:29:48.564Z,100249.13
2022-10-11T16:32:14.937Z,100255.72
2022-10-11T16:34:41.313Z,100247.94
2022-10-11T16:37:07.653Z,100252.72
2022-10-11T16:39:34.252Z,100259.31
2022-10-11T16:42:00.713Z,100256.03
2022-10-11T16:44:27.868Z,100252.75
2022-10-11T16:46:55.033Z,100262.81
2022-10-11T16:49:23.215Z,100256.88
2022-10-11T16:51:53.701Z,100260.78
2022-10-11T16:54:21.206Z,100262.78
2022-10-11T16:56:48.797Z,100259.47
2022-10-11T16:59:15.184Z,100272.16
2022-10-11T17:01:41.923Z,100267.91
2022-10-11T17:04:09.234Z,100272.66
2022-10-11T17:06:35.871Z,100272.88
2022-10-11T17:09:02.261Z,100276.66
2022-10-11T17:11:28.660Z,100268.94
2022-10-11T17:13:55.044Z,100272.75
2022-10-11T17:16:22.071Z,100279.22
2022-10-11T17:18:49.188Z,100276.78
2022-10-11T17:21:17.389Z,100283.16
2022-10-11T17:23:43.956Z,100284.22
2022-10-11T17:26:12.647Z,100279.00
2022-10-11T17:28:39.196Z,100278.22
2022-10-11T17:31:05.935Z,100281.13
2022-10-11T17:33:32.553Z,100278.59
2022-10-11T17:36:00.164Z,100284.94
2022-10-11T17:38:27.471Z,100275.34
2022-10-11T17:41:00.165Z,100286.25
2022-10-11T17:43:26.541Z,100298.97
2022-10-11T17:45:59.671Z,100287.59
2022-10-11T17:48:26.982Z,100287.72
2022-10-11T17:50:53.352Z,100283.38
2022-10-11T17:53:20.026Z,100283.53
2022-10-11T17:55:47.723Z,100288.09
2022-10-11T17:58:14.211Z,100285.47
2022-10-11T18:00:43.710Z,100280.22
2022-10-11T18:03:10.218Z,100285.56
2022-10-11T18:05:40.965Z,100284.72
2022-10-11T18:08:08.037Z,100291.91
2022-10-11T18:10:37.835Z,100284.84
2022-10-11T18:13:06.807Z,100289.47
2022-10-11T18:15:33.650Z,100286.06
2022-10-11T18:18:00.103Z,100283.50
2022-10-11T18:20:26.527Z,100277.41
2022-10-11T18:22:55.812Z,100285.53
2022-10-11T18:25:22.247Z,100282.97
2022-10-11T18:27:48.648Z,100293.75
2022-10-11T18:30:15.129Z,100283.19
2022-10-11T18:32:41.770Z,100292.13
2022-10-11T18:35:08.531Z,100283.28
2022-10-11T18:37:34.866Z,100286.91
2022-10-11T18:40:04.738Z,100279.91
2022-10-11T18:42:31.113Z,100287.16
2022-10-11T18:45:00.919Z,100284.50
2022-10-11T18:47:27.305Z,100291.72
2022-10-11T18:49:53.725Z,100293.53
2022-10-11T18:52:21.480Z,100288.25
2022-10-11T18:54:48.091Z,100292.75
2022-10-11T18:57:14.558Z,100292.03
2022-10-11T18:59:40.894Z,100288.56
2022-10-11T19:02:09.710Z,100285.94
2022-10-11T19:04:36.162Z,100284.25
2022-10-11T19:07:04.288Z,100290.63
2022-10-11T19:09:30.932Z,100280.00
2022-10-11T19:11:57.693Z,100281.84
2022-10-11T19:14:25.890Z,100281.91
2022-10-11T19:16:52.928Z,100278.38
2022-10-11T19:19:20.523Z,100278.44
2022-10-11T19:21:48.658Z,100275.78
2022-10-11T19:24:15.979Z,100282.97
2022-10-11T19:26:42.622Z,100277.78
2022-10-11T19:29:10.390Z,100267.44
2022-10-11T19:31:40.655Z,100267.44
2022-10-11T19:34:07.251Z,100270.06
2022-10-11T19:36:36.691Z,100274.56
2022-10-11T19:39:03.891Z,100280.78
2022-10-11T19:41:30.317Z,100279.91
2022-10-11T19:43:58.290Z,100282.56
2022-10-11T19:46:44.855Z,100281.69
2022-10-11T19:49:15.787Z,100279.03
2022-10-11T19:51:42.139Z,100277.28
2022-10-11T19:54:11.465Z,100282.63
2022-10-11T19:56:39.777Z,100278.22
2022-10-11T19:59:09.084Z,100278.25
2022-10-11T20:01:36.120Z,100282.72
2022-10-11T20:04:04.299Z,100283.63
2022-10-11T20:06:35.833Z,100284.53
2022-10-11T20:09:28.040Z,100290.75
2022-10-11T20:11:50.836Z,100287.22
2022-10-11T20:14:17.469Z,100289.06
2022-10-11T20:16:43.802Z,100290.81
2022-10-11T20:19:10.243Z,100284.63
2022-10-11T20:21:36.753Z,100280.19
2022-10-11T20:24:04.111Z,100287.31
2022-10-11T20:26:31.501Z,100287.31
2022-10-11T20:28:58.042Z,100283.78
2022-10-11T20:31:28.620Z,100288.22
2022-10-11T20:33:56.884Z,100285.59
2022-10-11T20:36:24.850Z,100288.28
2022-10-11T20:38:52.411Z,100293.63
2022-10-11T20:41:23.316Z,100289.22
2022-10-11T20:43:51.250Z,100292.78
2022-10-11T20:46:19.223Z,100288.41
2022-10-11T20:48:55.487Z,100291.09
2022-10-11T20:51:24.030Z,100289.31
2022-10-11T20:53:50.519Z,100287.50
2022-10-11T20:56:18.342Z,100285.78
2022-10-11T20:58:45.170Z,100288.47
2022-10-11T21:01:16.060Z,100290.22
2022-10-11T21:03:43.096Z,100293.81
2022-10-11T21:06:09.596Z,100283.19
2022-10-11T21:08:36.599Z,100295.59
2022-10-11T21:11:03.840Z,100297.41
2022-10-11T21:13:30.687Z,100295.66
2022-10-11T21:16:03.654Z,100295.66
2022-10-11T21:18:29.997Z,100303.66
2022-10-11T21:20:56.326Z,100295.69
2022-10-11T21:23:22.691Z,100301.91
2022-10-11T21:25:49.254Z,100301.06
2022-10-11T21:28:15.765Z,100302.84
2022-10-11T21:30:42.160Z,100299.31
2022-10-11T21:33:08.567Z,100299.34
2022-10-11T21:35:38.620Z,100302.00
2022-10-11T21:38:04.979Z,100302.91
2022-10-11T21:40:31.333Z,100300.25
2022-10-11T21:42:57.846Z,100301.16
2022-10-11T21:45:24.181Z,100300.25
2022-10-11T21:47:50.618Z,100302.94
2022-10-11T21:50:17.006Z,100299.44
2022-10-11T21:52:43.352Z,100296.78
2022-10-11T21:55:10.674Z,100296.78
2022-10-11T21:57:37.013Z,100294.13
2022-10-11T22:00:04.630Z,100297.66
2022-10-11T22:02:31.045Z,100298.56
2022-10-11T22:04:57.525Z,100294.16
2022-10-11T22:07:23.944Z,100303.00
2022-10-11T22:09:50.344Z,100299.50
2022-10-11T22:12:16.813Z,100299.53
2022-10-11T22:14:43.202Z,100306.59
2022-10-11T22:17:09.609Z,100303.97
2022-10-11T22:19:35.964Z,100301.31
2022-10-11T22:22:02.371Z,100306.63
2022-10-11T22:24:29.121Z,100299.53
2022-10-11T22:26:55.603Z,100308.41
2022-10-11T22:29:22.003Z,100305.75
2022-10-11T22:31:48.437Z,100301.34
2022-10-11T22:34:14.826Z,100304.91
2022-10-11T22:36:41.299Z,100312.97
2022-10-11T22:39:07.872Z,100312.97
2022-10-11T22:41:35.710Z,100306.78
2022-10-11T22:44:02.241Z,100311.22
2022-10-11T22:46:28.751Z,100305.91
2022-10-11T22:48:55.297Z,100307.69
2022-10-11T22:51:21.647Z,100310.38
2022-10-11T22:53:48.546Z,100309.50
2022-10-11T22:56:15.338Z,100296.22
2022-10-11T22:58:41.680Z,100306.84
2022-10-11T23:01:12.336Z,100310.38
2022-10-11T23:03:38.852Z,100307.72
2022-10-11T23:06:05.449Z,100309.50
2022-10-11T23:08:31.790Z,100307.75
2022-10-11T23:11:02.083Z,100305.13
2022-10-11T23:13:28.438Z,100308.66
2022-10-11T23:15:55.253Z,100300.72
2022-10-11T23:18:21.588Z,100309.59
2022-10-11T23:20:47.971Z,100312.22
2022-10-11T23:23:14.335Z,100313.13
2022-10-11T23:25:40.659Z,100317.56
2022-10-11T23:28:07.032Z,100314.91
2022-10-11T23:30:33.424Z,100312.25
2022-10-11T23:32:59.772Z,100308.72
2022-10-11T23:35:26.105Z,100309.59
2022-10-11T23:37:53.518Z,100307.81
2022-10-11T23:40:19.853Z,100306.06
2022-10-11T23:42:46.250Z,100307.81
2022-10-11T23:45:12.708Z,100308.75
2022-10-11T23:47:39.597Z,100299.00
2022-10-11T23:50:06.654Z,100308.72
2022-10-11T23:52:33.031Z,100312.28
2022-10-11T23:54:59.410Z,100312.25
2022-10-11T23:57:25.818Z,100306.97
2022-10-11T23:59:52.163Z,100311.38
